createdAt,value
2023-03-15T15:42:27.552Z,500.00
2023-03-15T15:46:26.861Z,400.00
2023-03-15T15:50:26.781Z,400.00
2023-03-15T15:54:26.760Z,400.00
2023-03-15T15:58:26.733Z,400.00
2023-03-15T16:02:26.770Z,400.00
2023-03-15T16:06:26.650Z,400.00
2023-03-15T16:10:26.598Z,400.00
2023-03-15T16:14:26.616Z,400.00
2023-03-15T16:18:26.651Z,400.00
2023-03-15T16:22:26.850Z,400.00
2023-03-15T16:26:26.786Z,504.00
2023-03-15T16:30:26.824Z,502.00
2023-03-15T16:34:26.829Z,500.00
2023-03-15T16:38:26.801Z,505.00
2023-03-15T16:42:26.843Z,500.00
2023-03-15T16:46:26.983Z,504.00
2023-03-15T16:50:27.076Z,516.00
2023-03-15T16:54:40.335Z,526.00
2023-03-15T16:58:27.894Z,517.00
2023-03-15T17:02:26.952Z,505.00
2023-03-15T17:06:26.819Z,505.00
2023-03-15T17:10:26.841Z,500.00
2023-03-15T17:14:26.796Z,512.00
2023-03-15T17:18:26.733Z,510.00
2023-03-15T17:22:26.660Z,510.00
2023-03-15T17:26:26.686Z,502.00
2023-03-15T17:30:26.728Z,512.00
2023-03-15T17:34:26.624Z,509.00
2023-03-15T17:38:26.628Z,503.00
2023-03-15T17:42:26.664Z,505.00
2023-03-15T17:46:26.683Z,501.00
2023-03-15T17:50:26.617Z,503.00
2023-03-15T17:54:26.631Z,507.00
2023-03-15T17:58:26.609Z,506.00
2023-03-15T18:02:26.635Z,507.00
2023-03-15T18:06:26.597Z,511.00
2023-03-15T18:10:26.689Z,512.00
2023-03-15T18:14:26.588Z,515.00
2023-03-15T18:18:26.745Z,514.00
2023-03-15T18:22:26.610Z,507.00
2023-03-15T18:26:26.651Z,509.00
2023-03-15T18:30:26.605Z,500.00
2023-03-15T18:34:26.597Z,512.00
2023-03-15T18:38:26.599Z,516.00
2023-03-15T18:42:26.604Z,506.00
2023-03-15T18:46:26.749Z,505.00
2023-03-15T18:50:26.594Z,511.00
2023-03-15T18:54:26.610Z,517.00
2023-03-15T18:58:26.588Z,511.00
2023-03-15T19:02:26.671Z,510.00
2023-03-15T19:06:26.680Z,511.00
2023-03-15T19:10:26.618Z,502.00
2023-03-15T19:14:26.588Z,521.00
2023-03-15T19:18:26.623Z,511.00
2023-03-15T19:22:26.634Z,514.00
2023-03-15T19:26:26.672Z,511.00
2023-03-15T19:30:26.674Z,513.00
2023-03-15T19:34:26.718Z,510.00
2023-03-15T19:38:26.725Z,504.00
2023-03-15T19:42:26.732Z,509.00
2023-03-15T19:46:27.372Z,503.00
2023-03-15T19:50:26.749Z,514.00
2023-03-15T19:54:27.737Z,512.00
2023-03-15T19:58:26.855Z,510.00
2023-03-15T20:02:26.872Z,506.00
2023-03-15T20:06:26.857Z,504.00
2023-03-15T20:10:26.977Z,510.00
2023-03-15T20:14:27.008Z,510.00
2023-03-15T20:18:27.027Z,512.00
2023-03-15T20:22:26.999Z,501.00
2023-03-15T20:26:27.074Z,516.00
2023-03-15T20:30:28.066Z,509.00
2023-03-15T20:34:27.182Z,509.00
2023-03-15T20:38:27.198Z,513.00
2023-03-15T20:42:27.226Z,510.00
2023-03-15T20:46:27.357Z,517.00
2023-03-15T20:50:27.378Z,517.00
2023-03-15T20:54:27.351Z,513.00
2023-03-15T20:58:27.431Z,515.00
2023-03-15T21:02:27.449Z,510.00
2023-03-15T21:06:27.576Z,500.00
2023-03-15T21:10:28.161Z,514.00
2023-03-15T21:14:27.581Z,515.00
2023-03-15T21:18:27.694Z,509.00
2023-03-15T21:22:27.618Z,511.00
2023-03-15T21:26:27.694Z,514.00
2023-03-15T21:30:27.771Z,514.00
2023-03-15T21:34:27.783Z,506.00
2023-03-15T21:38:27.839Z,506.00
2023-03-15T21:42:27.924Z,512.00
2023-03-15T21:46:28.053Z,508.00
2023-03-15T21:50:27.974Z,508.00
2023-03-15T21:54:28.045Z,512.00
2023-03-15T21:58:28.126Z,514.00
2023-03-15T22:02:28.197Z,513.00
2023-03-15T22:06:28.271Z,516.00
2023-03-15T22:10:28.349Z,519.00
2023-03-15T22:14:28.424Z,515.00
2023-03-15T22:18:28.550Z,515.00
2023-03-15T22:22:28.620Z,515.00
2023-03-15T22:26:28.781Z,516.00
2023-03-15T22:30:28.910Z,520.00
2023-03-15T22:34:28.944Z,513.00
2023-03-15T22:38:31.716Z,519.00
2023-03-15T22:42:29.727Z,521.00
2023-03-15T22:46:29.010Z,521.00
2023-03-15T22:50:28.970Z,530.00
2023-03-15T22:54:28.959Z,527.00
2023-03-15T22:58:28.895Z,522.00
2023-03-15T23:02:28.898Z,527.00
2023-03-15T23:06:31.799Z,529.00
2023-03-15T23:10:29.721Z,533.00
2023-03-15T23:14:28.775Z,529.00
2023-03-15T23:18:28.766Z,520.00
2023-03-15T23:22:28.753Z,523.00
2023-03-15T23:26:28.635Z,534.00
2023-03-15T23:30:29.020Z,543.00
2023-03-15T23:34:28.573Z,542.00
2023-03-15T23:38:28.551Z,536.00
2023-03-15T23:42:28.523Z,531.00
2023-03-15T23:46:28.535Z,542.00
2023-03-15T23:50:28.780Z,542.00
2023-03-15T23:54:28.415Z,535.00
2023-03-15T23:58:28.338Z,528.00
